Airfield :







YOU CAN JOIN US ON...

 
LOGIN :

Register | Disclaimer

   EN    FR    IT 

 









Legend :    VFR   Marginal VFR   IFR   Intensive IFR   Very Intensive IFR
Visi :
Ceiling :
>= 8 km
>= 3000ft
5 to 8 km
1000 to 3000 ft
1500m to 5 km
500 to 1000 ft
800 to 1500m
200 to 500 ft
< 800m
< 200 ft
Symbols :   Thunderstorms  Fog  Heavy snow  Heavy precipitations  Wind > 20 kt







- Airport Elevation : 228 ft


KFSO - Franklin County State

CURRENT METAR :
  • 162355Z AUTO 00000KT 10SM CLR 15/11 A3006 RMK AO2 T01470111 10215 20147

EXPIRED METARs :
  • 162336Z AUTO 00000KT 7SM CLR 15/12 A3006 RMK AO2 T01470115
  • 162316Z AUTO 00000KT 10SM CLR 16/11 A3006 RMK AO2 T01590114
  • 162255Z AUTO 00000KT 10SM CLR 17/10 A3006 RMK AO2 T01730104
  • 162236Z AUTO 00000KT 10SM CLR 19/10 A3005 RMK AO2 T01870102
  • 162215Z AUTO 00000KT 10SM CLR 20/10 A3005 RMK AO2 T01990100
  • 162156Z AUTO 27004KT 10SM CLR 20/09 A3005 RMK AO2 T02030094
  • 162135Z AUTO 29004KT 10SM SCT055 21/09 A3005 RMK AO2 T02060092
  • 162115Z AUTO 28003KT 10SM SCT055 21/09 A3005 RMK AO2 T02070088

TAF N/A
No reported NOTAMs for that airfield.



MET'MAP, your aeronautical weather chart ! - Copyright ORBIFLY December 2007 - Disclaimer

ORBIFLY MET'MAP TEAM :

Programming & Development : Alexandra Zaïnal
Concept & Development : Baudouin d'Aumeries
Co-Development & Prog : Marc-Olivier Méhu
Technical & hardware support : Manuel Goepfert

Contact : metmap@orbifly.com




SOURCES & CREDITS :

   NOAA